Halifax, Canada
Current Conditions -  °F | °C
As of 9:00 AM on Thursday 30 Oct 2014 (Local Time) from CYHZ Reporting Station
Rain Showers Rain Showers  
Wind Chill: 50°   Ceiling: 1400
Heat Index: 50°   Visibility: 15mi
Dew Point: 45°   Wind: 7mph
Humidity: 82%   Direction: 300°WNW
Pressure: 29.79"   Gusts: NA
Location:  44.65°N, 63.57°W
Report Text: CYHZ 301200Z 30006KT 15SM -SHRA SCT010 BKN014 OVC060 10/07 A2979 RMK SC3SC3SC2 SLP088
Loading
Personal Weather Stations






























Interactive Weather Map
Tropical Storm Tracking
New forecast layout! Learn more

10-Day Weather Forecast

Advertisements
Track Severe Weather on mobile